createdAt,value
2023-01-23T00:01:33.743Z,2.90
2023-01-23T00:04:00.981Z,2.80
2023-01-23T00:06:28.685Z,2.80
2023-01-23T00:08:59.027Z,3.00
2023-01-23T00:11:28.526Z,3.20
2023-01-23T00:13:57.149Z,3.20
2023-01-23T00:16:26.108Z,3.20
2023-01-23T00:18:53.540Z,3.00
2023-01-23T00:21:23.706Z,2.90
2023-01-23T00:23:53.099Z,2.80
2023-01-23T00:26:26.182Z,2.90
2023-01-23T00:28:53.816Z,3.10
2023-01-23T00:31:24.955Z,2.90
2023-01-23T00:33:57.191Z,2.70
2023-01-23T00:36:25.136Z,2.60
2023-01-23T00:38:52.050Z,2.60
2023-01-23T00:41:18.992Z,2.60
2023-01-23T00:43:46.996Z,2.60
2023-01-23T00:46:14.761Z,2.50
2023-01-23T00:48:41.713Z,2.60
2023-01-23T00:51:08.799Z,2.40
2023-01-23T00:53:35.716Z,2.30
2023-01-23T00:56:02.821Z,2.30
2023-01-23T00:58:29.843Z,2.50
2023-01-23T01:00:56.872Z,2.80
2023-01-23T01:03:25.307Z,2.80
2023-01-23T01:05:52.382Z,2.80
2023-01-23T01:08:19.334Z,3.00
2023-01-23T01:10:46.312Z,3.10
2023-01-23T01:13:13.304Z,3.20
2023-01-23T01:15:40.297Z,3.30
2023-01-23T01:18:07.242Z,3.20
2023-01-23T01:20:34.115Z,3.30
2023-01-23T01:23:01.077Z,3.30
2023-01-23T01:25:28.138Z,3.10
2023-01-23T01:27:56.086Z,2.90
2023-01-23T01:30:25.492Z,3.00
2023-01-23T01:32:52.814Z,3.20
2023-01-23T01:35:20.496Z,3.10
2023-01-23T01:37:48.116Z,3.00
2023-01-23T01:40:19.125Z,3.10
2023-01-23T01:42:50.603Z,3.10
2023-01-23T01:45:55.318Z,3.00
2023-01-23T01:48:27.173Z,2.80
2023-01-23T01:50:54.568Z,2.70
2023-01-23T01:53:25.805Z,2.70
2023-01-23T01:55:53.274Z,2.70
2023-01-23T01:58:20.757Z,2.80
2023-01-23T02:00:47.680Z,2.80
2023-01-23T02:03:16.959Z,2.60
2023-01-23T02:05:47.500Z,2.60
2023-01-23T02:08:19.086Z,2.60
2023-01-23T02:10:46.153Z,2.50
2023-01-23T02:13:33.734Z,2.40
2023-01-23T02:16:07.046Z,2.40
2023-01-23T02:18:36.135Z,2.50
2023-01-23T02:21:07.099Z,2.50
2023-01-23T02:23:39.332Z,2.70
2023-01-23T02:26:26.196Z,2.70
2023-01-23T02:28:53.543Z,2.80
2023-01-23T02:31:21.116Z,2.70
2023-01-23T02:33:59.235Z,2.70
2023-01-23T02:36:28.999Z,2.70
2023-01-23T02:39:09.430Z,2.70
2023-01-23T02:41:49.004Z,2.60
2023-01-23T02:44:29.184Z,2.60
2023-01-23T02:46:58.005Z,2.70
2023-01-23T02:49:24.953Z,2.80
2023-01-23T02:51:53.693Z,2.70
2023-01-23T02:54:22.429Z,2.70
2023-01-23T02:56:49.938Z,2.70
2023-01-23T02:59:35.404Z,2.60
2023-01-23T03:02:02.326Z,2.60
2023-01-23T03:04:29.325Z,2.60
2023-01-23T03:06:56.210Z,2.60
2023-01-23T03:09:23.253Z,2.50
2023-01-23T03:11:50.724Z,2.60
2023-01-23T03:14:19.988Z,2.60
2023-01-23T03:16:51.551Z,2.60
2023-01-23T03:19:20.562Z,2.50
2023-01-23T03:21:47.468Z,2.50
2023-01-23T03:24:14.974Z,2.50
2023-01-23T03:26:44.192Z,2.80
2023-01-23T03:29:39.449Z,2.90
2023-01-23T03:32:06.888Z,2.90
2023-01-23T03:34:33.893Z,2.90
2023-01-23T03:37:01.368Z,2.80
2023-01-23T03:39:46.710Z,3.00
2023-01-23T03:42:13.708Z,3.10
2023-01-23T03:44:40.731Z,3.20
2023-01-23T03:47:07.680Z,3.30
2023-01-23T03:49:34.688Z,3.40
2023-01-23T03:52:01.980Z,3.40
2023-01-23T03:54:29.413Z,3.40
2023-01-23T03:56:56.375Z,3.30
2023-01-23T03:59:23.351Z,3.20
2023-01-23T04:01:50.272Z,3.20
2023-01-23T04:04:17.255Z,3.20
2023-01-23T04:06:44.156Z,3.40
2023-01-23T04:09:11.161Z,3.40
2023-01-23T04:11:38.048Z,3.40
2023-01-23T04:14:04.921Z,3.40
2023-01-23T04:16:31.859Z,3.50
2023-01-23T04:18:58.758Z,3.40
2023-01-23T04:21:25.723Z,3.20
2023-01-23T04:23:52.562Z,3.10
2023-01-23T04:26:19.499Z,3.00
2023-01-23T04:28:46.384Z,2.90
2023-01-23T04:31:13.310Z,2.80
2023-01-23T04:33:40.289Z,2.80
2023-01-23T04:36:07.853Z,2.80
2023-01-23T04:38:35.432Z,2.80
2023-01-23T04:41:02.925Z,2.80
2023-01-23T04:43:29.931Z,2.90
2023-01-23T04:45:57.378Z,2.80
2023-01-23T04:48:25.081Z,2.80
2023-01-23T04:50:52.434Z,2.70
2023-01-23T04:53:19.968Z,2.80
2023-01-23T04:55:49.107Z,2.90
2023-01-23T04:58:17.950Z,2.90
2023-01-23T05:00:45.616Z,2.90
2023-01-23T05:03:13.028Z,2.90
2023-01-23T05:05:39.998Z,3.00
2023-01-23T05:08:06.941Z,3.00
2023-01-23T05:10:33.837Z,2.90
2023-01-23T05:13:00.752Z,2.90
2023-01-23T05:15:30.029Z,2.90
2023-01-23T05:17:57.600Z,3.00
2023-01-23T05:20:24.651Z,2.90
2023-01-23T05:22:54.598Z,2.80
2023-01-23T05:25:24.654Z,2.80
2023-01-23T05:27:51.609Z,2.90
2023-01-23T05:30:22.118Z,3.00
2023-01-23T05:32:49.376Z,2.80
2023-01-23T05:35:16.945Z,2.80
2023-01-23T05:37:43.969Z,2.80
2023-01-23T05:40:13.337Z,3.00
2023-01-23T05:42:40.315Z,3.10
2023-01-23T05:45:07.481Z,3.20
2023-01-23T05:47:34.510Z,3.10
2023-01-23T05:50:01.486Z,3.00
2023-01-23T05:52:28.712Z,3.20
2023-01-23T05:54:55.688Z,3.20
2023-01-23T05:57:22.659Z,3.40
2023-01-23T05:59:49.537Z,3.20
2023-01-23T06:02:16.764Z,3.10
2023-01-23T06:04:43.775Z,3.10
2023-01-23T06:07:14.475Z,3.30
2023-01-23T06:09:41.667Z,3.40
2023-01-23T06:12:09.720Z,3.30
2023-01-23T06:14:36.655Z,3.20
2023-01-23T06:17:04.035Z,3.40
2023-01-23T06:19:30.937Z,3.30
2023-01-23T06:21:57.884Z,3.20
2023-01-23T06:24:24.922Z,3.10
2023-01-23T06:26:51.809Z,3.10
2023-01-23T06:29:18.713Z,3.00
2023-01-23T06:31:46.932Z,3.10
2023-01-23T06:34:14.934Z,3.20
2023-01-23T06:36:42.509Z,3.30
2023-01-23T06:39:13.786Z,3.20
2023-01-23T06:41:40.912Z,3.40
2023-01-23T06:44:10.468Z,3.40
2023-01-23T06:46:37.404Z,3.40
2023-01-23T06:49:06.573Z,3.50
2023-01-23T06:51:34.045Z,3.40
2023-01-23T06:54:01.063Z,3.30
2023-01-23T06:56:27.986Z,3.30
2023-01-23T06:58:54.956Z,3.30
2023-01-23T07:01:21.906Z,3.30
2023-01-23T07:03:56.407Z,3.40
2023-01-23T07:06:23.336Z,3.40
2023-01-23T07:08:52.795Z,3.30
2023-01-23T07:11:19.717Z,3.60
2023-01-23T07:13:46.604Z,3.70
2023-01-23T07:16:13.510Z,3.80
2023-01-23T07:18:40.392Z,3.80
2023-01-23T07:21:07.591Z,3.60
2023-01-23T07:23:37.017Z,3.70
2023-01-23T07:26:09.669Z,3.70
2023-01-23T07:28:39.754Z,3.80
2023-01-23T07:31:07.208Z,4.00
2023-01-23T07:33:41.474Z,4.10
2023-01-23T07:36:09.088Z,3.90
2023-01-23T07:38:35.994Z,3.90
2023-01-23T07:41:02.999Z,3.80
2023-01-23T07:43:29.865Z,3.80
2023-01-23T07:46:00.148Z,3.80
2023-01-23T07:48:28.021Z,3.80
2023-01-23T07:51:03.284Z,3.80
2023-01-23T07:53:30.616Z,3.70
2023-01-23T07:55:59.837Z,3.70
2023-01-23T07:58:26.747Z,3.90
2023-01-23T08:00:53.615Z,3.90
2023-01-23T08:03:21.095Z,3.90
2023-01-23T08:05:51.003Z,4.10
2023-01-23T08:08:17.951Z,4.30
2023-01-23T08:10:44.950Z,4.20
2023-01-23T08:13:11.891Z,4.10
2023-01-23T08:15:38.979Z,4.20
2023-01-23T08:18:06.144Z,4.10
2023-01-23T08:20:33.216Z,4.00
2023-01-23T08:23:02.223Z,4.00
2023-01-23T08:25:29.681Z,3.90
2023-01-23T08:27:56.672Z,4.00
2023-01-23T08:30:23.952Z,4.00
2023-01-23T08:32:50.871Z,4.00
2023-01-23T08:35:17.847Z,4.10
2023-01-23T08:37:44.730Z,4.10
2023-01-23T08:40:12.271Z,4.20
2023-01-23T08:42:39.245Z,4.10
2023-01-23T08:45:06.850Z,4.10
2023-01-23T08:47:36.697Z,4.40
2023-01-23T08:50:07.821Z,4.40
2023-01-23T08:52:35.341Z,4.50
2023-01-23T08:55:02.657Z,4.50
2023-01-23T08:57:29.746Z,4.60
2023-01-23T08:59:56.767Z,4.50
2023-01-23T09:02:23.938Z,4.40
2023-01-23T09:04:51.220Z,4.40
2023-01-23T09:07:18.237Z,4.50
2023-01-23T09:09:45.260Z,4.40
2023-01-23T09:12:12.325Z,4.60
2023-01-23T09:14:39.336Z,4.80
2023-01-23T09:17:06.598Z,4.90
2023-01-23T09:19:34.055Z,4.70
2023-01-23T09:22:01.111Z,4.70
2023-01-23T09:24:28.142Z,4.70
2023-01-23T09:26:55.071Z,4.80
2023-01-23T09:29:24.384Z,4.70
2023-01-23T09:31:51.379Z,4.50
2023-01-23T09:34:18.490Z,4.70
2023-01-23T09:36:45.440Z,5.00
2023-01-23T09:39:12.745Z,5.20
2023-01-23T09:41:41.124Z,5.30
2023-01-23T09:44:40.522Z,5.30
2023-01-23T09:47:15.176Z,4.90
2023-01-23T09:50:00.455Z,4.60
2023-01-23T09:52:34.497Z,4.40
2023-01-23T09:55:32.772Z,4.40
2023-01-23T09:58:03.457Z,4.50
2023-01-23T10:00:32.965Z,4.60
2023-01-23T10:03:11.362Z,4.40
2023-01-23T10:06:06.227Z,4.60
2023-01-23T10:08:57.651Z,4.70
2023-01-23T10:11:44.861Z,4.90
2023-01-23T10:14:25.356Z,5.10
2023-01-23T10:17:07.387Z,5.10
2023-01-23T10:20:14.009Z,4.90
2023-01-23T10:23:01.726Z,4.90
2023-01-23T10:25:35.676Z,4.90
2023-01-23T10:28:28.527Z,4.80
2023-01-23T10:31:03.989Z,4.90
2023-01-23T10:33:51.097Z,4.90
2023-01-23T10:36:47.896Z,4.90
2023-01-23T10:39:27.502Z,4.90
2023-01-23T10:42:01.965Z,4.80
2023-01-23T10:44:29.554Z,4.90
2023-01-23T10:47:04.027Z,4.90
2023-01-23T10:49:43.645Z,4.90
2023-01-23T10:52:32.712Z,5.10
2023-01-23T10:55:00.800Z,4.90
2023-01-23T10:57:35.411Z,5.10
2023-01-23T11:00:24.800Z,5.20
2023-01-23T11:02:51.913Z,5.50
2023-01-23T11:05:50.654Z,5.20
2023-01-23T11:08:32.572Z,5.30
2023-01-23T11:11:19.884Z,5.10
2023-01-23T11:13:49.670Z,5.20
2023-01-23T11:16:23.902Z,5.30
2023-01-23T11:18:55.308Z,5.40
2023-01-23T11:21:38.802Z,5.60
2023-01-23T11:24:24.781Z,5.80
2023-01-23T11:27:03.707Z,5.60
2023-01-23T11:29:42.622Z,5.90
2023-01-23T11:32:13.505Z,5.90
2023-01-23T11:34:50.101Z,5.80
2023-01-23T11:37:23.001Z,5.70
2023-01-23T11:40:01.611Z,5.80
2023-01-23T11:42:31.007Z,5.80
2023-01-23T11:45:01.270Z,5.90
2023-01-23T11:48:03.494Z,5.70
2023-01-23T11:50:55.558Z,5.90
2023-01-23T11:53:43.029Z,6.10
2023-01-23T11:56:35.169Z,6.10
2023-01-23T11:59:34.009Z,6.20
2023-01-23T12:02:32.412Z,6.30
2023-01-23T12:05:26.196Z,6.50
2023-01-23T12:08:11.968Z,6.30
2023-01-23T12:11:12.211Z,6.30
2023-01-23T12:13:42.151Z,6.10
2023-01-23T12:16:23.949Z,6.10
2023-01-23T12:19:27.745Z,6.00
2023-01-23T12:22:06.058Z,6.00
2023-01-23T12:25:16.718Z,5.90
2023-01-23T12:27:46.144Z,6.00
2023-01-23T12:30:25.409Z,6.20
2023-01-23T12:33:27.018Z,6.00
2023-01-23T12:35:59.826Z,5.80
2023-01-23T12:38:42.519Z,5.80
2023-01-23T12:41:23.565Z,5.60
2023-01-23T12:44:05.046Z,5.60
2023-01-23T12:46:41.847Z,5.90
2023-01-23T12:49:33.699Z,5.90
2023-01-23T12:52:06.213Z,6.00
2023-01-23T12:54:59.332Z,6.00
2023-01-23T12:57:52.683Z,5.80
2023-01-23T13:00:53.905Z,5.70
2023-01-23T13:03:45.963Z,5.60
2023-01-23T13:06:29.220Z,5.70
2023-01-23T13:09:18.383Z,5.90
2023-01-23T13:11:54.702Z,5.90
2023-01-23T13:15:00.581Z,6.10
2023-01-23T13:17:48.210Z,6.00
2023-01-23T13:20:55.303Z,5.90
2023-01-23T13:23:36.735Z,6.10
2023-01-23T13:26:15.738Z,6.10
2023-01-23T13:28:49.329Z,6.00
2023-01-23T13:31:42.360Z,5.90
2023-01-23T13:34:29.661Z,5.70
2023-01-23T13:37:32.274Z,5.70
2023-01-23T13:40:24.562Z,5.60
2023-01-23T13:42:51.983Z,5.60
2023-01-23T13:45:27.584Z,5.70
2023-01-23T14:22:55.441Z,5.00
2023-01-23T14:25:22.917Z,5.00
2023-01-23T14:28:01.489Z,5.20
2023-01-23T14:30:30.340Z,5.20
2023-01-23T14:32:59.265Z,5.20
2023-01-23T14:35:29.962Z,5.20
2023-01-23T14:38:06.574Z,5.20
2023-01-23T14:40:48.904Z,5.50
2023-01-23T14:43:24.108Z,5.50
2023-01-23T14:46:19.430Z,5.50
2023-01-23T14:48:54.512Z,5.40
2023-01-23T14:51:31.801Z,5.40
2023-01-23T14:54:20.368Z,5.40
2023-01-23T14:56:50.092Z,5.40
2023-01-23T14:59:26.916Z,5.30
2023-01-23T15:02:20.745Z,5.30
2023-01-23T15:05:06.878Z,5.20
2023-01-23T15:07:35.632Z,5.30
2023-01-23T15:10:02.855Z,5.30
2023-01-23T15:12:32.373Z,5.40
2023-01-23T15:15:00.264Z,5.30
2023-01-23T15:17:29.326Z,5.30
2023-01-23T15:19:56.392Z,5.40
2023-01-23T15:22:29.332Z,5.30
2023-01-23T15:24:56.924Z,5.50
2023-01-23T15:27:24.618Z,5.40
2023-01-23T15:29:52.451Z,5.40
2023-01-23T15:32:26.342Z,5.30
2023-01-23T15:34:55.411Z,5.20
2023-01-23T15:37:26.301Z,5.10
2023-01-23T15:39:56.481Z,5.20
2023-01-23T15:42:33.124Z,5.10
2023-01-23T15:45:03.895Z,5.10
2023-01-23T15:47:31.728Z,5.10
2023-01-23T15:50:01.757Z,5.20
2023-01-23T15:52:31.780Z,5.30
2023-01-23T15:55:04.321Z,5.30
2023-01-23T15:57:31.279Z,5.10
2023-01-23T15:59:58.211Z,5.10
2023-01-23T16:02:31.044Z,5.30
2023-01-23T16:05:00.865Z,5.10
2023-01-23T16:07:43.089Z,5.10
2023-01-23T16:10:19.635Z,5.10
2023-01-23T16:12:48.954Z,5.00
2023-01-23T16:15:16.968Z,5.00
2023-01-23T16:17:44.630Z,4.90
2023-01-23T16:20:16.717Z,5.10
2023-01-23T16:22:45.178Z,4.90
2023-01-23T16:25:44.107Z,4.90
2023-01-23T16:28:12.997Z,4.70
2023-01-23T16:30:39.942Z,4.50
2023-01-23T16:33:07.082Z,4.40
2023-01-23T16:35:34.603Z,4.30
2023-01-23T16:38:01.712Z,4.30
2023-01-23T16:40:30.767Z,4.30
2023-01-23T16:42:58.334Z,4.40
2023-01-23T16:45:27.797Z,4.40
2023-01-23T16:47:55.483Z,4.40
2023-01-23T16:50:30.617Z,4.70
2023-01-23T16:53:31.261Z,4.80
2023-01-23T16:56:00.653Z,5.00
2023-01-23T16:58:37.001Z,5.10
2023-01-23T17:01:09.234Z,5.10
2023-01-23T17:03:40.815Z,5.10
2023-01-23T17:06:15.951Z,5.10
2023-01-23T17:08:43.310Z,5.10
2023-01-23T17:11:21.347Z,5.10
2023-01-23T17:13:55.648Z,5.10
2023-01-23T17:16:27.661Z,5.40
2023-01-23T17:18:57.121Z,5.20
2023-01-23T17:21:27.080Z,5.20
2023-01-23T17:23:53.973Z,5.00
2023-01-23T17:26:21.079Z,5.00
2023-01-23T17:28:48.219Z,5.00
2023-01-23T17:31:25.593Z,5.10
2023-01-23T17:33:52.785Z,5.20
2023-01-23T17:36:19.892Z,5.30
2023-01-23T17:38:47.029Z,5.30
2023-01-23T17:41:15.998Z,5.20
2023-01-23T17:43:48.379Z,5.20
2023-01-23T17:46:39.661Z,5.20
2023-01-23T17:49:30.460Z,5.30
2023-01-23T17:51:59.140Z,5.20
2023-01-23T17:54:29.003Z,5.10
2023-01-23T17:56:56.096Z,5.00
2023-01-23T17:59:23.019Z,5.00
2023-01-23T18:01:50.409Z,5.20
2023-01-23T18:04:19.505Z,5.20
2023-01-23T18:06:46.641Z,5.20
2023-01-23T18:09:14.218Z,5.40
2023-01-23T18:11:49.732Z,5.50
2023-01-23T18:14:45.439Z,5.30
2023-01-23T18:17:22.704Z,5.40
2023-01-23T18:19:51.581Z,5.40
2023-01-23T18:22:18.780Z,5.40
2023-01-23T18:24:46.129Z,5.40
2023-01-23T18:27:23.387Z,5.50
2023-01-23T18:30:17.704Z,5.20
2023-01-23T18:33:06.313Z,5.40
2023-01-23T18:35:59.401Z,5.20
2023-01-23T18:38:37.952Z,5.20
2023-01-23T18:41:26.644Z,5.40
2023-01-23T18:44:12.810Z,5.40
2023-01-23T18:46:40.017Z,5.50
2023-01-23T18:49:08.524Z,5.20
2023-01-23T18:51:41.980Z,5.20
2023-01-23T18:54:37.464Z,5.10
2023-01-23T18:57:54.450Z,5.30
2023-01-23T19:00:48.086Z,5.40
2023-01-23T19:03:17.645Z,5.30
2023-01-23T19:05:45.960Z,5.30
2023-01-23T19:08:28.240Z,5.50
2023-01-23T19:11:05.379Z,5.50
2023-01-23T19:13:42.900Z,5.40
2023-01-23T19:16:31.610Z,5.40
2023-01-23T19:19:14.700Z,5.40
2023-01-23T19:21:42.900Z,5.40
2023-01-23T19:24:11.165Z,5.20
2023-01-23T19:26:40.562Z,5.30
2023-01-23T19:29:21.061Z,5.40
2023-01-23T19:32:03.480Z,5.40
2023-01-23T19:34:30.974Z,5.60
2023-01-23T19:36:58.098Z,5.70
2023-01-23T19:39:25.003Z,5.50
2023-01-23T19:41:53.309Z,5.20
2023-01-23T19:44:24.043Z,5.30
2023-01-23T19:46:52.198Z,5.10
2023-01-23T19:49:19.378Z,5.20
2023-01-23T19:51:47.102Z,5.10
2023-01-23T19:54:15.118Z,5.10
2023-01-23T19:56:42.479Z,5.20
2023-01-23T19:59:10.573Z,5.40
2023-01-23T20:01:45.419Z,5.40
2023-01-23T20:04:15.991Z,5.30
2023-01-23T20:06:45.468Z,5.30
2023-01-23T20:09:17.628Z,5.30
2023-01-23T20:11:45.634Z,5.10
2023-01-23T20:14:13.054Z,5.30
2023-01-23T20:16:42.888Z,5.40
2023-01-23T20:19:16.833Z,5.50
2023-01-23T20:21:44.187Z,5.50
2023-01-23T20:24:11.471Z,5.50
2023-01-23T20:26:39.469Z,5.50
2023-01-23T20:29:08.071Z,5.50
2023-01-23T20:31:35.796Z,5.50
2023-01-23T20:34:02.950Z,5.50
2023-01-23T20:36:30.011Z,5.60
2023-01-23T20:39:00.397Z,5.70
2023-01-23T20:41:27.449Z,5.60
2023-01-23T20:43:54.617Z,5.70
2023-01-23T20:46:21.776Z,5.50
2023-01-23T20:48:48.871Z,5.50
2023-01-23T20:51:16.724Z,5.50
2023-01-23T20:53:44.296Z,5.50
2023-01-23T20:56:14.252Z,5.50
2023-01-23T20:59:04.383Z,5.70
2023-01-23T21:01:54.734Z,5.60
2023-01-23T21:04:23.128Z,5.70
2023-01-23T21:06:50.245Z,5.60
2023-01-23T21:09:17.689Z,5.60
2023-01-23T21:11:45.420Z,5.50
2023-01-23T21:14:13.918Z,5.40
2023-01-23T21:16:43.374Z,5.30
2023-01-23T21:19:10.398Z,5.30
2023-01-23T21:21:37.629Z,5.40
2023-01-23T21:24:04.760Z,5.40
2023-01-23T21:26:31.708Z,5.40
2023-01-23T21:28:58.716Z,5.40
2023-01-23T21:31:29.509Z,5.40
2023-01-23T21:34:00.172Z,5.50
2023-01-23T21:36:27.705Z,5.60
2023-01-23T21:38:55.413Z,5.50
2023-01-23T21:41:22.946Z,5.50
2023-01-23T21:43:49.936Z,5.50
2023-01-23T21:46:17.289Z,5.40
2023-01-23T21:48:44.228Z,5.30
2023-01-23T21:51:16.660Z,5.40
2023-01-23T21:53:45.829Z,5.40
2023-01-23T21:56:15.558Z,5.30
2023-01-23T21:58:42.945Z,5.50
2023-01-23T22:01:35.945Z,5.50
2023-01-23T22:04:05.903Z,5.50
2023-01-23T22:06:34.179Z,5.50
2023-01-23T22:09:01.124Z,5.40
2023-01-23T22:11:28.618Z,5.40
2023-01-23T22:13:56.062Z,5.30
2023-01-23T22:16:40.192Z,5.30
2023-01-23T22:19:18.696Z,5.40
2023-01-23T22:21:46.843Z,5.30
2023-01-23T22:24:14.888Z,5.20
2023-01-23T22:26:42.580Z,5.40
2023-01-23T22:29:10.829Z,5.40
2023-01-23T22:31:37.883Z,5.40
2023-01-23T22:34:04.976Z,5.40
2023-01-23T22:36:32.172Z,5.30
2023-01-23T22:38:59.093Z,5.30
2023-01-23T22:41:26.194Z,5.30
2023-01-23T22:43:59.266Z,5.30
2023-01-23T22:46:27.561Z,5.40
2023-01-23T22:48:56.994Z,5.50
2023-01-23T22:51:26.587Z,5.40
2023-01-23T22:53:54.838Z,5.30
2023-01-23T22:56:23.092Z,5.30
2023-01-23T22:58:51.542Z,5.40
2023-01-23T23:01:19.598Z,5.40
2023-01-23T23:03:46.565Z,5.50
2023-01-23T23:06:15.173Z,5.60
2023-01-23T23:08:43.710Z,5.70
2023-01-23T23:11:13.965Z,5.60
2023-01-23T23:13:41.335Z,5.60
2023-01-23T23:16:18.181Z,5.60
2023-01-23T23:18:47.917Z,5.50
2023-01-23T23:21:17.527Z,5.50
2023-01-23T23:23:44.765Z,5.40
2023-01-23T23:26:12.272Z,5.50
2023-01-23T23:28:39.761Z,5.40
2023-01-23T23:31:07.774Z,5.40
2023-01-23T23:33:35.313Z,5.30
2023-01-23T23:36:02.208Z,5.50
2023-01-23T23:38:29.077Z,5.50
2023-01-23T23:40:56.580Z,5.50
2023-01-23T23:43:24.086Z,5.40
2023-01-23T23:45:58.409Z,5.40
2023-01-23T23:48:26.556Z,5.50
2023-01-23T23:50:54.228Z,5.50
2023-01-23T23:53:22.295Z,5.50
2023-01-23T23:55:49.401Z,5.40
2023-01-23T23:58:16.597Z,5.20
